Time;durP1;ratioP1;P1;durP2;ratioP2;P2;SDS_P1;SDS_P2;PMS_P1;PMS_P2;Temp;Humidity;BMP_temperature;BMP_pressure;BME280_temperature;BME280_humidity;BME280_pressure;Samples;Min_cycle;Max_cycle;Signal;HPM_P1;HPM_P2
2023/11/22 00:37:46;;;;;;;;;16.33;16.33;;;;;;;;4904166;29;45337;-75
2023/11/22 00:40:11;;;;;;;;;17.00;15.00;;;;;;;;4904419;29;45644;-75
2023/11/22 00:42:37;;;;;;;;;21.00;18.67;;;;;;;;4887311;29;45471;-76
2023/11/22 00:45:05;;;;;;;;;21.33;19.67;;;;;;;;4904055;29;46029;-75
2023/11/22 00:47:30;;;;;;;;;19.00;18.33;;;;;;;;4904184;29;45960;-75
2023/11/22 00:49:56;;;;;;;;;21.00;18.67;;;;;;;;4886901;29;46212;-75
2023/11/22 00:52:21;;;;;;;;;19.00;18.67;;;;;;;;4904371;29;45299;-75
2023/11/22 00:54:47;;;;;;;;;22.67;20.67;;;;;;;;4904314;29;45340;-76
2023/11/22 00:57:12;;;;;;;;;23.33;23.33;;;;;;;;4910129;28;45498;-75
2023/11/22 00:59:37;;;;;;;;;23.67;21.00;;;;;;;;4922820;28;45367;-75
2023/11/22 01:02:02;;;;;;;;;20.67;17.67;;;;;;;;4923365;28;45500;-75
2023/11/22 01:04:27;;;;;;;;;16.33;14.33;;;;;;;;4923016;28;45229;-76
2023/11/22 01:06:53;;;;;;;;;21.33;17.00;;;;;;;;4905827;28;48322;-75
2023/11/22 01:09:18;;;;;;;;;27.00;23.00;;;;;;;;4922925;28;45264;-76
2023/11/22 01:11:43;;;;;;;;;19.33;18.33;;;;;;;;4923014;28;45459;-75
2023/11/22 01:14:09;;;;;;;;;25.67;23.00;;;;;;;;4905491;28;46270;-75
2023/11/22 01:16:34;;;;;;;;;24.00;22.33;;;;;;;;4905486;28;48495;-75
2023/11/22 01:19:00;;;;;;;;;23.00;19.33;;;;;;;;4905504;28;45852;-75
2023/11/22 01:21:26;;;;;;;;;22.00;20.67;;;;;;;;4922892;28;45344;-75
2023/11/22 01:23:51;;;;;;;;;23.33;20.33;;;;;;;;4922898;28;45253;-75
2023/11/22 01:26:16;;;;;;;;;24.67;21.67;;;;;;;;4922605;28;45276;-75
2023/11/22 01:28:44;;;;;;;;;21.67;20.33;;;;;;;;4922748;28;45320;-75
2023/11/22 01:31:10;;;;;;;;;26.33;23.33;;;;;;;;4905479;28;45370;-75
2023/11/22 01:33:36;;;;;;;;;23.67;22.00;;;;;;;;4922495;28;45347;-75
2023/11/22 01:36:01;;;;;;;;;22.00;22.00;;;;;;;;4922166;28;45323;-75
2023/11/22 01:38:26;;;;;;;;;24.00;21.67;;;;;;;;4905246;28;45373;-75
2023/11/22 01:40:51;;;;;;;;;24.33;23.00;;;;;;;;4905541;28;45498;-76
2023/11/22 01:43:18;;;;;;;;;25.33;22.00;;;;;;;;4906045;28;45287;-75
2023/11/22 01:45:43;;;;;;;;;25.00;23.67;;;;;;;;4884965;29;47161;-74
2023/11/22 01:48:10;;;;;;;;;27.67;26.33;;;;;;;;4902573;29;45295;-75
2023/11/22 01:50:36;;;;;;;;;27.67;24.33;;;;;;;;4886298;29;45348;-75
2023/11/22 01:53:02;;;;;;;;;25.33;22.00;;;;;;;;4903282;29;45673;-75
2023/11/22 01:55:27;;;;;;;;;19.33;19.33;;;;;;;;4886171;29;47596;-74
2023/11/22 01:57:52;;;;;;;;;28.33;23.33;;;;;;;;4897449;28;45371;-75
2023/11/22 02:00:18;;;;;;;;;23.00;22.33;;;;;;;;4922024;28;45387;-76
2023/11/22 02:02:44;;;;;;;;;24.00;24.00;;;;;;;;4922170;28;45335;-75
2023/11/22 02:05:10;;;;;;;;;23.33;21.00;;;;;;;;4921913;28;45908;-76
2023/11/22 02:07:35;;;;;;;;;17.00;13.67;;;;;;;;4905066;28;45458;-75
2023/11/22 02:10:02;;;;;;;;;25.67;23.67;;;;;;;;4922053;28;45255;-75
2023/11/22 02:24:40;;;;;;;;;26.33;22.67;;;;;;;;4921762;28;45223;-74
2023/11/22 02:27:06;;;;;;;;;24.00;22.00;;;;;;;;4921710;28;46398;-74
2023/11/22 02:29:31;;;;;;;;;28.67;25.67;;;;;;;;4921799;28;45279;-74
2023/11/22 02:31:56;;;;;;;;;24.33;23.33;;;;;;;;4922002;28;45323;-74
2023/11/22 02:34:21;;;;;;;;;24.67;23.00;;;;;;;;4921692;28;45397;-74
2023/11/22 02:36:47;;;;;;;;;17.67;17.33;;;;;;;;4904577;28;48512;-74
2023/11/22 02:39:14;;;;;;;;;28.00;25.00;;;;;;;;4921798;28;45225;-74
2023/11/22 02:41:39;;;;;;;;;26.67;23.67;;;;;;;;4904856;28;45358;-74
2023/11/22 02:44:06;;;;;;;;;18.00;17.67;;;;;;;;4921490;28;46094;-74
2023/11/22 02:46:32;;;;;;;;;22.33;19.67;;;;;;;;4921617;28;45372;-74
2023/11/22 02:48:59;;;;;;;;;25.00;24.00;;;;;;;;4921568;28;45387;-74
2023/11/22 02:51:24;;;;;;;;;19.67;19.00;;;;;;;;4904577;28;45405;-74
2023/11/22 02:53:49;;;;;;;;;25.33;23.00;;;;;;;;4921572;28;45227;-73
2023/11/22 02:56:15;;;;;;;;;30.67;26.33;;;;;;;;4904340;28;48086;-73
2023/11/22 02:58:40;;;;;;;;;25.00;24.67;;;;;;;;4888684;29;45302;-75
2023/11/22 03:01:07;;;;;;;;;25.33;22.00;;;;;;;;4905719;29;45285;-74
2023/11/22 03:03:32;;;;;;;;;21.33;19.00;;;;;;;;4905493;29;45217;-74
2023/11/22 03:05:57;;;;;;;;;23.67;23.67;;;;;;;;4905744;29;45992;-74
2023/11/22 03:08:22;;;;;;;;;27.00;22.33;;;;;;;;4888349;29;45305;-74
2023/11/22 03:10:48;;;;;;;;;27.00;25.00;;;;;;;;4906073;29;45384;-74
2023/11/22 03:13:13;;;;;;;;;19.00;19.00;;;;;;;;4888800;29;47239;-74
2023/11/22 03:15:38;;;;;;;;;22.67;22.33;;;;;;;;4905497;29;46104;-74
2023/11/22 03:18:06;;;;;;;;;28.00;25.00;;;;;;;;4888489;29;45293;-74
2023/11/22 03:20:32;;;;;;;;;23.67;23.67;;;;;;;;4905667;29;45340;-74
2023/11/22 03:22:57;;;;;;;;;32.33;25.67;;;;;;;;4905293;29;45500;-73
2023/11/22 03:25:23;;;;;;;;;22.67;21.67;;;;;;;;4905608;29;46029;-74
2023/11/22 03:27:48;;;;;;;;;30.67;25.67;;;;;;;;4905282;29;45252;-74
2023/11/22 03:30:14;;;;;;;;;23.67;22.33;;;;;;;;4905639;29;45716;-75
2023/11/22 03:32:40;;;;;;;;;29.00;23.00;;;;;;;;4905264;29;45335;-74
2023/11/22 03:35:06;;;;;;;;;27.33;26.67;;;;;;;;4904843;29;46450;-74
2023/11/22 03:37:31;;;;;;;;;25.00;22.67;;;;;;;;4905366;29;45162;-74
2023/11/22 03:39:56;;;;;;;;;29.00;26.67;;;;;;;;4905310;29;45277;-74
2023/11/22 03:42:22;;;;;;;;;31.33;26.67;;;;;;;;4905201;29;45278;-74
2023/11/22 03:44:47;;;;;;;;;28.33;23.67;;;;;;;;4905075;29;45206;-74
2023/11/22 03:47:15;;;;;;;;;27.00;23.33;;;;;;;;4905293;29;45222;-75
2023/11/22 03:49:40;;;;;;;;;27.67;25.00;;;;;;;;4905222;29;45459;-74
2023/11/22 03:52:06;;;;;;;;;26.33;26.00;;;;;;;;4905041;29;45804;-74
2023/11/22 03:54:32;;;;;;;;;22.00;21.67;;;;;;;;4905132;29;45465;-74
2023/11/22 03:56:57;;;;;;;;;22.00;21.00;;;;;;;;4909111;28;45511;-74
2023/11/22 03:59:24;;;;;;;;;30.00;24.00;;;;;;;;4923809;28;45435;-75
2023/11/22 04:01:49;;;;;;;;;27.00;25.00;;;;;;;;4906799;28;46279;-74
2023/11/22 04:04:14;;;;;;;;;24.33;22.00;;;;;;;;4923757;28;46122;-73
2023/11/22 04:06:40;;;;;;;;;23.67;20.67;;;;;;;;4923982;28;45317;-75
2023/11/22 04:09:05;;;;;;;;;21.00;20.00;;;;;;;;4922919;28;45399;-74
2023/11/22 04:11:30;;;;;;;;;26.00;21.67;;;;;;;;4923503;28;45201;-74
2023/11/22 04:13:56;;;;;;;;;19.00;18.67;;;;;;;;4923699;28;45303;-74
2023/11/22 04:16:21;;;;;;;;;19.00;19.00;;;;;;;;4923577;28;45247;-74
2023/11/22 04:18:46;;;;;;;;;23.67;17.67;;;;;;;;4906499;28;45268;-74
2023/11/22 04:21:11;;;;;;;;;21.33;18.00;;;;;;;;4923853;28;45542;-74
2023/11/22 04:23:36;;;;;;;;;22.33;21.00;;;;;;;;4923603;28;46266;-73
2023/11/22 04:26:02;;;;;;;;;22.33;20.00;;;;;;;;4906543;28;45816;-74
2023/11/22 04:28:29;;;;;;;;;22.33;21.33;;;;;;;;4923532;28;45208;-74
2023/11/22 04:30:54;;;;;;;;;19.67;19.00;;;;;;;;4923476;28;45342;-74
2023/11/22 04:33:20;;;;;;;;;18.67;16.33;;;;;;;;4923246;28;45992;-73
2023/11/22 04:35:46;;;;;;;;;21.67;18.33;;;;;;;;4923377;28;45613;-74
2023/11/22 04:38:11;;;;;;;;;20.67;18.33;;;;;;;;4906441;28;45388;-74
2023/11/22 04:40:37;;;;;;;;;17.00;14.33;;;;;;;;4923517;28;45399;-75
2023/11/22 04:43:02;;;;;;;;;19.67;17.67;;;;;;;;4906176;28;48423;-74
2023/11/22 04:45:27;;;;;;;;;14.67;13.33;;;;;;;;4923274;28;45331;-74
2023/11/22 04:47:52;;;;;;;;;19.00;17.33;;;;;;;;4923792;28;45422;-74
2023/11/22 04:50:17;;;;;;;;;20.33;19.33;;;;;;;;4923294;28;45331;-74
2023/11/22 04:52:43;;;;;;;;;18.33;16.00;;;;;;;;4923168;28;45268;-74
2023/11/22 04:55:08;;;;;;;;;20.00;18.00;;;;;;;;4923262;28;45225;-74
2023/11/22 04:57:33;;;;;;;;;18.00;17.67;;;;;;;;4914077;28;45722;-74
2023/11/22 05:00:00;;;;;;;;;16.33;15.33;;;;;;;;4903720;29;45598;-74
2023/11/22 05:02:26;;;;;;;;;17.67;16.00;;;;;;;;4886837;29;47500;-73
2023/11/22 05:04:52;;;;;;;;;18.00;16.67;;;;;;;;4903881;29;45353;-75
2023/11/22 05:07:18;;;;;;;;;17.33;16.33;;;;;;;;4887156;29;45307;-75
2023/11/22 05:09:44;;;;;;;;;20.33;16.33;;;;;;;;4903811;29;45403;-74
2023/11/22 05:12:09;;;;;;;;;18.00;17.67;;;;;;;;4886563;29;47177;-73
2023/11/22 05:14:34;;;;;;;;;20.00;18.33;;;;;;;;4903724;29;45309;-74
2023/11/22 05:17:00;;;;;;;;;19.00;17.33;;;;;;;;4886890;29;45340;-75
2023/11/22 05:19:25;;;;;;;;;19.00;18.33;;;;;;;;4903738;29;45387;-74
2023/11/22 05:21:51;;;;;;;;;19.00;14.67;;;;;;;;4903531;29;45977;-75
2023/11/22 05:24:16;;;;;;;;;23.67;18.67;;;;;;;;4886806;29;45416;-74
2023/11/22 05:26:41;;;;;;;;;20.50;19.75;;;;;;;;4904259;29;45331;-73
2023/11/22 05:29:07;;;;;;;;;18.00;18.00;;;;;;;;4886439;29;46981;-74
2023/11/22 05:31:32;;;;;;;;;20.67;19.33;;;;;;;;4903670;29;46086;-74
2023/11/22 05:33:57;;;;;;;;;20.33;18.67;;;;;;;;4903378;29;45349;-74
2023/11/22 05:36:22;;;;;;;;;20.33;20.33;;;;;;;;4886936;29;45315;-74
2023/11/22 05:38:47;;;;;;;;;24.33;19.67;;;;;;;;4903593;29;45301;-75
2023/11/22 05:41:13;;;;;;;;;21.00;18.00;;;;;;;;4903535;29;45431;-75
2023/11/22 05:43:39;;;;;;;;;18.00;17.00;;;;;;;;4903470;29;45184;-74
2023/11/22 05:46:04;;;;;;;;;23.00;19.33;;;;;;;;4903336;29;45236;-74
2023/11/22 05:48:30;;;;;;;;;26.00;24.00;;;;;;;;4902877;29;45495;-74
2023/11/22 05:50:55;;;;;;;;;21.00;19.00;;;;;;;;4885916;29;48161;-75
2023/11/22 05:53:21;;;;;;;;;26.33;22.33;;;;;;;;4902172;29;45385;-73
2023/11/22 05:55:49;;;;;;;;;17.67;17.67;;;;;;;;4903118;29;45149;-74
2023/11/22 05:58:17;;;;;;;;;20.00;17.67;;;;;;;;4917354;28;45488;-73
2023/11/22 06:00:46;;;;;;;;;22.33;19.67;;;;;;;;4904688;28;48384;-74
2023/11/22 06:03:12;;;;;;;;;23.00;18.33;;;;;;;;4922052;28;45303;-74
2023/11/22 06:05:38;;;;;;;;;20.33;17.67;;;;;;;;4922311;28;45371;-73
2023/11/22 06:08:03;;;;;;;;;24.67;24.33;;;;;;;;4904782;28;45925;-74
2023/11/22 06:10:28;;;;;;;;;23.00;20.67;;;;;;;;4920802;28;45490;-73
2023/11/22 06:12:53;;;;;;;;;19.33;17.00;;;;;;;;4922279;28;45446;-74
2023/11/22 06:15:20;;;;;;;;;23.33;20.67;;;;;;;;4904954;28;45456;-74
2023/11/22 06:17:46;;;;;;;;;21.33;19.00;;;;;;;;4922127;28;45744;-73
2023/11/22 06:20:11;;;;;;;;;26.00;23.00;;;;;;;;4921735;28;45355;-75
2023/11/22 06:22:40;;;;;;;;;24.67;22.00;;;;;;;;4922014;28;45315;-74
2023/11/22 06:25:06;;;;;;;;;20.00;19.33;;;;;;;;4922076;28;45227;-74
2023/11/22 06:27:32;;;;;;;;;27.67;21.00;;;;;;;;4910936;28;45459;-74
2023/11/22 06:29:58;;;;;;;;;24.00;21.00;;;;;;;;4902708;29;45589;-74
2023/11/22 06:32:23;;;;;;;;;25.00;22.67;;;;;;;;4903071;29;45490;-74
2023/11/22 06:34:48;;;;;;;;;23.67;22.00;;;;;;;;4906401;29;45333;-74
2023/11/22 06:37:13;;;;;;;;;24.67;19.33;;;;;;;;4906199;29;45412;-74
2023/11/22 06:39:38;;;;;;;;;23.67;22.00;;;;;;;;4906202;29;46677;-74
2023/11/22 06:42:04;;;;;;;;;18.67;18.00;;;;;;;;4906165;29;45367;-75
2023/11/22 06:44:29;;;;;;;;;24.00;20.33;;;;;;;;4905080;29;45541;-75
2023/11/22 06:46:54;;;;;;;;;25.33;21.67;;;;;;;;4906109;29;45366;-74
2023/11/22 06:49:19;;;;;;;;;18.00;17.00;;;;;;;;4905933;29;45421;-76
2023/11/22 06:51:45;;;;;;;;;29.67;25.67;;;;;;;;4906090;29;45344;-76
2023/11/22 06:54:10;;;;;;;;;28.67;26.33;;;;;;;;4888999;29;45313;-75
2023/11/22 06:56:35;;;;;;;;;29.33;25.33;;;;;;;;4907342;28;45338;-74
2023/11/22 06:59:01;;;;;;;;;25.67;21.33;;;;;;;;4907214;28;47483;-74
2023/11/22 07:01:26;;;;;;;;;27.33;26.00;;;;;;;;4924675;28;45303;-74
2023/11/22 07:03:52;;;;;;;;;28.00;23.00;;;;;;;;4908155;28;45482;-74
2023/11/22 07:06:18;;;;;;;;;24.67;24.33;;;;;;;;4888188;29;46752;-74
2023/11/22 07:08:44;;;;;;;;;29.67;28.00;;;;;;;;4901096;29;47996;-73
2023/11/22 07:11:10;;;;;;;;;34.33;29.00;;;;;;;;4886778;29;45276;-74
2023/11/22 07:13:38;;;;;;;;;28.00;26.00;;;;;;;;4869798;29;45356;-74
2023/11/22 07:16:04;;;;;;;;;25.33;23.67;;;;;;;;4886385;29;45391;-74
2023/11/22 07:18:29;;;;;;;;;25.00;25.00;;;;;;;;4897409;29;46725;-75
2023/11/22 07:20:55;;;;;;;;;30.00;28.33;;;;;;;;4905656;29;45427;-75
2023/11/22 07:23:22;;;;;;;;;24.33;24.00;;;;;;;;4905308;29;45336;-73
2023/11/22 07:25:47;;;;;;;;;28.67;27.67;;;;;;;;4891561;29;45814;-74
2023/11/22 07:28:12;;;;;;;;;34.00;32.33;;;;;;;;4886356;29;46166;-74
2023/11/22 07:30:41;;;;;;;;;42.00;35.67;;;;;;;;4886486;29;45297;-77
2023/11/22 07:33:06;;;;;;;;;32.00;30.33;;;;;;;;4877803;29;45445;-76
2023/11/22 07:35:31;;;;;;;;;31.33;28.67;;;;;;;;4894955;29;45522;-78
2023/11/22 07:37:57;;;;;;;;;31.33;28.33;;;;;;;;4896044;29;45934;-76
2023/11/22 07:40:23;;;;;;;;;34.00;31.67;;;;;;;;4896850;29;45215;-77
2023/11/22 07:42:49;;;;;;;;;32.67;30.67;;;;;;;;4876735;29;45425;-76
2023/11/22 07:45:14;;;;;;;;;31.33;30.33;;;;;;;;4896606;29;45376;-74
2023/11/22 07:47:41;;;;;;;;;36.00;33.00;;;;;;;;4894365;29;46805;-75
2023/11/22 07:50:11;;;;;;;;;31.33;29.67;;;;;;;;4895388;29;45608;-74
2023/11/22 07:52:37;;;;;;;;;38.00;31.33;;;;;;;;4871492;29;45420;-73
2023/11/22 07:55:03;;;;;;;;;35.00;33.00;;;;;;;;4886549;29;45238;-73
2023/11/22 07:57:28;;;;;;;;;35.67;31.33;;;;;;;;4902562;28;46147;-74
2023/11/22 07:59:55;;;;;;;;;31.33;28.00;;;;;;;;4906318;28;45555;-74
2023/11/22 08:02:20;;;;;;;;;36.33;29.67;;;;;;;;4924056;28;45331;-75
2023/11/22 08:04:48;;;;;;;;;34.67;28.00;;;;;;;;4906618;28;46125;-74
2023/11/22 08:07:13;;;;;;;;;32.33;28.33;;;;;;;;4882795;29;48343;-74
2023/11/22 08:09:38;;;;;;;;;34.33;30.67;;;;;;;;4893410;29;45402;-73
2023/11/22 08:12:03;;;;;;;;;31.67;28.67;;;;;;;;4895590;29;45325;-75
2023/11/22 08:14:30;;;;;;;;;29.33;26.33;;;;;;;;4894561;29;45287;-74
2023/11/22 08:16:55;;;;;;;;;36.00;32.33;;;;;;;;4893727;29;45287;-73
2023/11/22 08:19:23;;;;;;;;;37.33;30.00;;;;;;;;4876183;29;45353;-74
2023/11/22 08:21:48;;;;;;;;;31.00;29.00;;;;;;;;4894673;29;45345;-73
2023/11/22 08:24:13;;;;;;;;;27.00;25.67;;;;;;;;4892230;29;45624;-74
2023/11/22 08:26:39;;;;;;;;;28.33;27.33;;;;;;;;4895410;29;46113;-73
2023/11/22 08:29:04;;;;;;;;;30.00;27.67;;;;;;;;4893478;29;45352;-74
2023/11/22 08:31:30;;;;;;;;;34.00;28.00;;;;;;;;4894435;29;45328;-77
2023/11/22 08:33:56;;;;;;;;;37.33;33.00;;;;;;;;4895062;29;46415;-76
2023/11/22 08:36:21;;;;;;;;;35.33;32.00;;;;;;;;4876255;29;47523;-75
2023/11/22 08:38:47;;;;;;;;;27.00;23.00;;;;;;;;4895846;28;45503;-75
2023/11/22 08:41:13;;;;;;;;;34.67;29.33;;;;;;;;4901539;29;45390;-75
2023/11/22 08:43:38;;;;;;;;;33.00;31.67;;;;;;;;4894649;29;45353;-75
2023/11/22 08:46:04;;;;;;;;;38.67;32.00;;;;;;;;4893715;29;45325;-76
2023/11/22 08:48:30;;;;;;;;;34.00;30.67;;;;;;;;4875804;29;45305;-75
2023/11/22 08:50:55;;;;;;;;;34.33;29.67;;;;;;;;4892857;29;45361;-75
2023/11/22 08:53:21;;;;;;;;;38.33;31.67;;;;;;;;4893612;29;45360;-75
2023/11/22 08:55:47;;;;;;;;;30.67;29.67;;;;;;;;4893163;29;46207;-75
2023/11/22 08:58:12;;;;;;;;;28.50;25.50;;;;;;;;4896183;28;45276;-76
2023/11/22 09:00:37;;;;;;;;;27.33;26.67;;;;;;;;4877904;29;45426;-76
2023/11/22 09:03:05;;;;;;;;;35.00;31.33;;;;;;;;4894936;29;45520;-76
2023/11/22 09:05:30;;;;;;;;;30.33;29.00;;;;;;;;4880944;29;47721;-77
2023/11/22 09:07:55;;;;;;;;;35.33;31.67;;;;;;;;4894552;29;45310;-75
2023/11/22 09:10:21;;;;;;;;;32.33;31.00;;;;;;;;4881449;29;45502;-75
2023/11/22 09:12:47;;;;;;;;;33.33;30.00;;;;;;;;4899524;28;46102;-76
2023/11/22 09:15:15;;;;;;;;;37.33;32.33;;;;;;;;4899669;28;45339;-74
2023/11/22 09:17:44;;;;;;;;;36.33;31.33;;;;;;;;4921806;28;45312;-75
2023/11/22 09:20:14;;;;;;;;;35.00;30.67;;;;;;;;4921740;28;45493;-75
2023/11/22 09:22:45;;;;;;;;;32.67;30.33;;;;;;;;4922683;28;45600;-76
2023/11/22 09:25:11;;;;;;;;;34.33;30.33;;;;;;;;4920268;28;45474;-74
2023/11/22 09:27:36;;;;;;;;;27.00;25.33;;;;;;;;4902731;28;46025;-76
2023/11/22 09:30:02;;;;;;;;;29.00;28.00;;;;;;;;4922429;28;45454;-74
2023/11/22 09:32:27;;;;;;;;;43.67;36.00;;;;;;;;4921813;28;45365;-74
2023/11/22 09:34:57;;;;;;;;;33.00;30.33;;;;;;;;4922363;28;45294;-75
2023/11/22 09:37:22;;;;;;;;;34.67;27.33;;;;;;;;4921685;28;46343;-75
2023/11/22 09:39:48;;;;;;;;;29.50;26.25;;;;;;;;4905338;28;45400;-74
2023/11/22 09:42:13;;;;;;;;;31.67;28.67;;;;;;;;4904614;28;46053;-77
2023/11/22 09:44:39;;;;;;;;;34.33;29.00;;;;;;;;4899103;28;47148;-75
2023/11/22 09:47:04;;;;;;;;;42.67;36.00;;;;;;;;4922120;28;45284;-75
2023/11/22 09:49:31;;;;;;;;;60.50;47.75;;;;;;;;4922163;28;45858;-73
2023/11/22 09:51:58;;;;;;;;;45.33;38.00;;;;;;;;4910473;28;45466;-74
2023/11/22 09:54:29;;;;;;;;;37.00;32.67;;;;;;;;4919860;28;46238;-75
2023/11/22 09:56:54;;;;;;;;;35.67;29.67;;;;;;;;4907022;28;45423;-76
2023/11/22 09:59:23;;;;;;;;;33.00;31.00;;;;;;;;4889442;29;45421;-74
2023/11/22 10:01:48;;;;;;;;;35.67;31.67;;;;;;;;4883895;29;45317;-76
2023/11/22 10:04:14;;;;;;;;;32.67;28.67;;;;;;;;4883900;29;45486;-75
2023/11/22 10:06:40;;;;;;;;;34.33;31.00;;;;;;;;4883722;29;45306;-75
2023/11/22 10:09:08;;;;;;;;;38.67;33.33;;;;;;;;4866662;29;45289;-77
2023/11/22 10:11:36;;;;;;;;;31.33;26.67;;;;;;;;4883875;29;45228;-76
2023/11/22 10:14:01;;;;;;;;;40.67;35.67;;;;;;;;4883667;29;45388;-75
2023/11/22 10:16:26;;;;;;;;;40.67;35.00;;;;;;;;4881997;29;46692;-76
2023/11/22 10:18:51;;;;;;;;;36.33;31.33;;;;;;;;4894818;29;45479;-76
2023/11/22 10:21:20;;;;;;;;;55.00;43.50;;;;;;;;4902232;29;45259;-76
2023/11/22 10:23:47;;;;;;;;;40.67;34.33;;;;;;;;4902060;29;45436;-76
2023/11/22 10:26:13;;;;;;;;;35.00;31.67;;;;;;;;4884972;29;45718;-76
2023/11/22 10:28:39;;;;;;;;;72.25;56.25;;;;;;;;4902069;29;45553;-76
2023/11/22 10:31:06;;;;;;;;;48.67;38.67;;;;;;;;4885153;29;46209;-76
2023/11/22 10:33:32;;;;;;;;;35.33;28.33;;;;;;;;4901855;29;45400;-77
2023/11/22 10:35:58;;;;;;;;;41.67;34.33;;;;;;;;4882198;29;45694;-78
2023/11/22 10:38:23;;;;;;;;;65.50;47.75;;;;;;;;4882347;29;45342;-78
2023/11/22 10:40:51;;;;;;;;;68.50;52.75;;;;;;;;4874655;29;45445;-77
2023/11/22 10:43:17;;;;;;;;;67.50;52.50;;;;;;;;4878151;29;45984;-77
2023/11/22 10:45:48;;;;;;;;;47.00;37.67;;;;;;;;4881640;29;45325;-80
2023/11/22 10:48:15;;;;;;;;;49.33;36.67;;;;;;;;4881742;29;45355;-79
2023/11/22 10:50:41;;;;;;;;;43.00;35.33;;;;;;;;4883257;29;45819;-77
2023/11/22 10:53:06;;;;;;;;;60.50;48.75;;;;;;;;4883000;29;48175;-80
2023/11/22 10:55:32;;;;;;;;;40.33;34.00;;;;;;;;4882635;29;45364;-79
2023/11/22 10:58:01;;;;;;;;;28.33;25.33;;;;;;;;4893992;29;45365;-81
2023/11/22 11:00:27;;;;;;;;;27.33;24.67;;;;;;;;4884067;28;45930;-81
2023/11/22 11:02:58;;;;;;;;;26.67;26.67;;;;;;;;4882450;29;48014;-80
2023/11/22 11:05:29;;;;;;;;;31.33;28.33;;;;;;;;4883496;29;45414;-76
2023/11/22 11:07:59;;;;;;;;;30.67;24.67;;;;;;;;4883023;29;45472;-76
2023/11/22 11:10:25;;;;;;;;;27.67;25.00;;;;;;;;4881908;29;45459;-77
2023/11/22 11:12:53;;;;;;;;;25.00;25.00;;;;;;;;4882462;29;46054;-77
2023/11/22 11:15:19;;;;;;;;;30.33;22.33;;;;;;;;4883452;29;45308;-78
2023/11/22 11:17:47;;;;;;;;;30.00;25.33;;;;;;;;4881807;29;45323;-77
2023/11/22 11:20:13;;;;;;;;;27.00;22.00;;;;;;;;4885156;29;45364;-76
2023/11/22 11:22:38;;;;;;;;;18.67;16.67;;;;;;;;4886462;29;46071;-77
2023/11/22 11:25:05;;;;;;;;;29.33;26.00;;;;;;;;4885369;29;45308;-77
2023/11/22 11:27:35;;;;;;;;;74.00;57.00;;;;;;;;4886005;29;45398;-77
2023/11/22 11:30:01;;;;;;;;;40.67;35.00;;;;;;;;4884320;29;47080;-77
2023/11/22 11:32:32;;;;;;;;;28.00;24.33;;;;;;;;4886386;29;45272;-77
2023/11/22 11:34:59;;;;;;;;;27.00;24.67;;;;;;;;4884978;29;45450;-77
2023/11/22 11:37:25;;;;;;;;;33.33;31.00;;;;;;;;4885312;29;45189;-76
2023/11/22 11:39:50;;;;;;;;;30.50;25.25;;;;;;;;4886327;29;45319;-78
2023/11/22 11:42:15;;;;;;;;;22.67;22.67;;;;;;;;4886829;29;45248;-77
2023/11/22 11:44:59;;;;;;;;;20.00;20.00;;;;;;;;4884784;29;45695;-78
2023/11/22 11:47:24;;;;;;;;;27.00;22.00;;;;;;;;4886529;29;45356;-77
2023/11/22 11:49:50;;;;;;;;;27.00;22.33;;;;;;;;4886225;29;45390;-77
2023/11/22 11:52:15;;;;;;;;;25.67;24.00;;;;;;;;4886229;29;45255;-79
2023/11/22 11:54:41;;;;;;;;;21.00;19.00;;;;;;;;4885060;29;45194;-79
2023/11/22 11:57:06;;;;;;;;;27.50;22.50;;;;;;;;4885907;29;45214;-78
2023/11/22 11:59:32;;;;;;;;;25.67;22.00;;;;;;;;4878963;29;47070;-76
2023/11/22 12:01:59;;;;;;;;;23.00;23.00;;;;;;;;4885823;29;45184;-78
2023/11/22 12:04:24;;;;;;;;;26.00;22.67;;;;;;;;4885688;29;45371;-79
2023/11/22 12:06:51;;;;;;;;;22.00;18.67;;;;;;;;4886192;29;45341;-78
2023/11/22 12:09:21;;;;;;;;;20.33;18.67;;;;;;;;4885197;29;45336;-78
2023/11/22 12:11:47;;;;;;;;;20.33;20.33;;;;;;;;4879714;29;47370;-77
2023/11/22 12:14:12;;;;;;;;;24.00;21.00;;;;;;;;4876014;29;45389;-79
2023/11/22 12:16:38;;;;;;;;;21.67;18.67;;;;;;;;4875078;29;45350;-78
2023/11/22 12:19:04;;;;;;;;;20.67;18.33;;;;;;;;4876590;29;45403;-79
2023/11/22 12:21:30;;;;;;;;;13.67;12.00;;;;;;;;4875702;29;45451;-77
2023/11/22 12:23:55;;;;;;;;;12.67;12.00;;;;;;;;4877350;29;45263;-77
2023/11/22 12:26:21;;;;;;;;;15.33;13.00;;;;;;;;4885807;29;45601;-79
2023/11/22 12:28:47;;;;;;;;;15.33;13.00;;;;;;;;4884107;29;46531;-76
2023/11/22 12:31:13;;;;;;;;;19.67;15.67;;;;;;;;4884748;29;45313;-77
2023/11/22 12:33:40;;;;;;;;;20.67;18.33;;;;;;;;4879017;29;45266;-77
2023/11/22 12:36:06;;;;;;;;;36.67;31.33;;;;;;;;4884235;29;45365;-76
2023/11/22 12:38:31;;;;;;;;;9.33;7.00;;;;;;;;4892449;29;46125;-77
2023/11/22 12:40:57;;;;;;;;;32.33;30.33;;;;;;;;4882296;29;47118;-76
2023/11/22 12:43:22;;;;;;;;;62.25;45.75;;;;;;;;4902049;29;45352;-76
2023/11/22 12:45:57;;;;;;;;;23.67;20.33;;;;;;;;4902395;28;45360;-77
2023/11/22 12:48:24;;;;;;;;;17.33;14.67;;;;;;;;4885377;29;47013;-76
2023/11/22 12:50:49;;;;;;;;;18.67;18.67;;;;;;;;4884756;29;48163;-75
2023/11/22 12:53:15;;;;;;;;;15.67;15.33;;;;;;;;4901308;29;45292;-76
2023/11/22 12:55:48;;;;;;;;;18.33;16.00;;;;;;;;4874542;28;45514;-77
2023/11/22 12:58:14;;;;;;;;;16.33;16.00;;;;;;;;4903830;28;45559;-78
2023/11/22 13:00:39;;;;;;;;;18.00;15.67;;;;;;;;4899286;28;45396;-74
2023/11/22 13:03:10;;;;;;;;;14.33;14.00;;;;;;;;4900345;29;45529;-77
2023/11/22 13:05:36;;;;;;;;;12.33;12.00;;;;;;;;4902904;28;45352;-77
2023/11/22 13:08:01;;;;;;;;;12.67;11.33;;;;;;;;4901258;29;45327;-77
2023/11/22 13:10:26;;;;;;;;;13.33;13.33;;;;;;;;4884429;29;45320;-77
2023/11/22 13:12:54;;;;;;;;;11.67;10.00;;;;;;;;4885290;29;45317;-78
2023/11/22 13:15:20;;;;;;;;;11.67;11.67;;;;;;;;4884357;29;45347;-77
2023/11/22 13:17:46;;;;;;;;;12.00;10.00;;;;;;;;4891894;28;45356;-78
2023/11/22 13:20:15;;;;;;;;;13.00;11.00;;;;;;;;4882890;29;47269;-78
2023/11/22 13:22:41;;;;;;;;;11.00;11.00;;;;;;;;4903098;28;45335;-76
2023/11/22 13:25:07;;;;;;;;;8.00;8.00;;;;;;;;4902894;29;45556;-78
2023/11/22 13:27:32;;;;;;;;;14.67;11.67;;;;;;;;4902986;28;45353;-77
2023/11/22 13:29:58;;;;;;;;;8.67;8.00;;;;;;;;4901873;29;45403;-77
2023/11/22 13:32:24;;;;;;;;;14.00;13.33;;;;;;;;4901963;29;45846;-76
2023/11/22 13:34:53;;;;;;;;;6.67;6.67;;;;;;;;4903732;29;45305;-78
2023/11/22 13:37:21;;;;;;;;;11.33;11.00;;;;;;;;4899554;29;45446;-77
2023/11/22 13:39:47;;;;;;;;;12.33;12.33;;;;;;;;4882606;29;47094;-77
2023/11/22 13:42:12;;;;;;;;;14.00;12.25;;;;;;;;4875834;29;45440;-77
2023/11/22 13:44:37;;;;;;;;;10.75;10.75;;;;;;;;4896867;29;45298;-77
2023/11/22 13:47:04;;;;;;;;;11.00;9.67;;;;;;;;4884499;28;46187;-74
2023/11/22 13:49:29;;;;;;;;;7.67;7.67;;;;;;;;4901145;29;46127;-77
2023/11/22 13:51:54;;;;;;;;;10.40;9.60;;;;;;;;4902463;29;45776;-74
2023/11/22 13:54:19;;;;;;;;;10.50;10.25;;;;;;;;4902901;29;45422;-74
2023/11/22 13:56:45;;;;;;;;;11.00;11.00;;;;;;;;4883147;28;45859;-76
2023/11/22 13:59:11;;;;;;;;;10.25;9.00;;;;;;;;4885504;29;48288;-75
2023/11/22 14:01:36;;;;;;;;;11.00;11.00;;;;;;;;4902697;29;45427;-74
2023/11/22 14:04:02;;;;;;;;;11.20;11.20;;;;;;;;4903278;29;46419;-74
2023/11/22 14:06:27;;;;;;;;;11.50;8.50;;;;;;;;4902793;29;45438;-74
2023/11/22 14:08:53;;;;;;;;;11.00;10.00;;;;;;;;4885638;29;48440;-74
2023/11/22 14:11:18;;;;;;;;;11.25;10.00;;;;;;;;4902771;29;45382;-75
2023/11/22 14:13:43;;;;;;;;;12.50;11.00;;;;;;;;4903957;29;45385;-77
2023/11/22 14:16:08;;;;;;;;;10.00;9.00;;;;;;;;4894382;29;45642;-76
2023/11/22 14:18:34;;;;;;;;;9.75;8.75;;;;;;;;4893485;29;46106;-76
2023/11/22 14:20:59;;;;;;;;;13.25;12.25;;;;;;;;4875466;29;45417;-76
2023/11/22 14:23:24;;;;;;;;;8.50;8.50;;;;;;;;4891001;29;45362;-75
2023/11/22 14:25:49;;;;;;;;;12.00;11.80;;;;;;;;4882769;29;46428;-74
2023/11/22 14:28:14;;;;;;;;;10.50;10.50;;;;;;;;4901590;29;47287;-74
2023/11/22 14:30:41;;;;;;;;;8.75;8.75;;;;;;;;4902187;29;45202;-74
2023/11/22 14:33:06;;;;;;;;;11.00;11.00;;;;;;;;4884324;29;45244;-74
2023/11/22 14:35:33;;;;;;;;;9.33;9.33;;;;;;;;4872932;29;45986;-74
2023/11/22 14:38:00;;;;;;;;;14.33;10.67;;;;;;;;4874834;29;47298;-74
2023/11/22 14:40:25;;;;;;;;;9.67;9.67;;;;;;;;4874986;29;45879;-77
2023/11/22 14:42:52;;;;;;;;;9.33;7.00;;;;;;;;4901185;29;45414;-75
2023/11/22 14:45:19;;;;;;;;;8.67;8.33;;;;;;;;4887062;29;45433;-74
2023/11/22 14:47:45;;;;;;;;;11.00;10.00;;;;;;;;4890492;29;46023;-75
2023/11/22 14:50:11;;;;;;;;;9.33;9.33;;;;;;;;4900753;29;45929;-76
2023/11/22 14:52:37;;;;;;;;;13.00;10.33;;;;;;;;4899766;29;45493;-76
2023/11/22 14:55:04;;;;;;;;;10.33;9.67;;;;;;;;4894909;29;45218;-76
2023/11/22 14:57:29;;;;;;;;;7.33;7.33;;;;;;;;4913964;28;45502;-76
2023/11/22 14:59:56;;;;;;;;;10.00;10.00;;;;;;;;4911185;28;45438;-75